BWA982 TNCM-TJSJ
Flight info
| Callsign | BWA982 |
|---|---|
| Flight time | N/A |
| Altitude | 18000 |
| Route | MODOR2XGOUDA/10 BOPAT2 GOUDA DCT GOUDA R760 COY RTE4 VEDAS/N0386F170 DCT MAVIE TROCO3 |
| Aircraft | B38M/M-SDE1FGHILORVWXY/HB1 |
Departure
| Time | 2026-05-03 20:36 |
|---|---|
| Airport | Princess Juliana International Airport (TNCM) |
Arrival
| Time | N/A |
|---|---|
| Airport | Luis Munoz Marin International Airport (TJSJ) |
| Time | Latitude | Longitude | Altitude | Speed | Heading |
|---|---|---|---|---|---|
| 2026-05-03 20:15 | 18.04303 | -63.11497 | 23 ft | 0 kts | 351° |
| 2026-05-03 20:26 | 18.04281 | -63.11493 | 25 ft | 4 kts | 346° |
| 2026-05-03 20:26 | 18.04255 | -63.11484 | 27 ft | 4 kts | 333° |
| 2026-05-03 20:27 | 18.04236 | -63.11468 | 25 ft | 4 kts | 296° |
| 2026-05-03 20:27 | 18.04235 | -63.11453 | 25 ft | 1 kts | 236° |
| 2026-05-03 20:27 | 18.04237 | -63.11450 | 25 ft | 0 kts | 236° |
| 2026-05-03 20:31 | 18.04234 | -63.11455 | 26 ft | 2 kts | 236° |
| 2026-05-03 20:32 | 18.04208 | -63.11495 | 23 ft | 12 kts | 235° |
| 2026-05-03 20:32 | 18.04134 | -63.11589 | 23 ft | 21 kts | 231° |
| 2026-05-03 20:32 | 18.04062 | -63.11695 | 25 ft | 17 kts | 252° |
| 2026-05-03 20:32 | 18.04045 | -63.11825 | 23 ft | 19 kts | 261° |
| 2026-05-03 20:33 | 18.04041 | -63.11854 | 25 ft | 0 kts | 261° |
| 2026-05-03 20:34 | 18.04039 | -63.11867 | 25 ft | 5 kts | 261° |
| 2026-05-03 20:34 | 18.04007 | -63.11937 | 24 ft | 16 kts | 233° |
| 2026-05-03 20:34 | 18.03938 | -63.11951 | 24 ft | 12 kts | 120° |
| 2026-05-03 20:35 | 18.03952 | -63.11870 | 24 ft | 12 kts | 75° |
| 2026-05-03 20:35 | 18.03976 | -63.11710 | 24 ft | 45 kts | 82° |
| 2026-05-03 20:35 | 18.04052 | -63.11181 | 24 ft | 101 kts | 81° |
| 2026-05-03 20:35 | 18.04179 | -63.10262 | 24 ft | 156 kts | 80° |
| 2026-05-03 20:36 | 18.04284 | -63.09028 | 537 ft | 176 kts | 98° |
| 2026-05-03 20:36 | 18.03639 | -63.07915 | 1288 ft | 191 kts | 145° |
| 2026-05-03 20:36 | 18.02313 | -63.07695 | 2136 ft | 206 kts | 190° |
| 2026-05-03 20:36 | 18.00955 | -63.08336 | 2561 ft | 230 kts | 215° |
| 2026-05-03 20:37 | 17.99855 | -63.09669 | 2871 ft | 256 kts | 238° |
| 2026-05-03 20:37 | 17.99378 | -63.11462 | 3707 ft | 256 kts | 264° |
| 2026-05-03 20:37 | 17.99237 | -63.13382 | 4224 ft | 273 kts | 263° |
| 2026-05-03 20:37 | 17.99038 | -63.15435 | 4704 ft | 289 kts | 262° |
| 2026-05-03 20:38 | 17.98827 | -63.17501 | 5509 ft | 288 kts | 262° |
| 2026-05-03 20:38 | 17.98604 | -63.19615 | 6233 ft | 294 kts | 262° |
| 2026-05-03 20:38 | 17.98372 | -63.21755 | 6963 ft | 296 kts | 262° |
| 2026-05-03 20:38 | 17.98137 | -63.23910 | 7719 ft | 296 kts | 262° |
| 2026-05-03 20:39 | 17.97901 | -63.26066 | 8415 ft | 299 kts | 262° |
| 2026-05-03 20:39 | 17.97661 | -63.28247 | 9139 ft | 302 kts | 262° |
| 2026-05-03 20:39 | 17.97420 | -63.30435 | 9927 ft | 300 kts | 262° |
| 2026-05-03 20:39 | 17.97177 | -63.32639 | 10465 ft | 310 kts | 263° |
| 2026-05-03 20:40 | 17.96918 | -63.34960 | 10698 ft | 329 kts | 262° |
| 2026-05-03 20:40 | 17.96645 | -63.37388 | 10910 ft | 347 kts | 263° |
| 2026-05-03 20:40 | 17.96359 | -63.39945 | 11249 ft | 358 kts | 263° |
| 2026-05-03 20:40 | 17.96071 | -63.42545 | 11930 ft | 358 kts | 263° |
| 2026-05-03 20:41 | 17.95783 | -63.45159 | 12558 ft | 362 kts | 263° |
| 2026-05-03 20:41 | 17.95493 | -63.47793 | 13231 ft | 364 kts | 263° |
| 2026-05-03 20:41 | 17.95199 | -63.50448 | 13887 ft | 368 kts | 263° |
| 2026-05-03 20:41 | 17.94903 | -63.53127 | 14502 ft | 369 kts | 263° |
| 2026-05-03 20:42 | 17.94606 | -63.55814 | 15144 ft | 371 kts | 264° |
| 2026-05-03 20:42 | 17.94311 | -63.58480 | 15746 ft | 373 kts | 263° |
| 2026-05-03 20:42 | 17.94010 | -63.61194 | 16344 ft | 375 kts | 264° |
| 2026-05-03 20:42 | 17.93709 | -63.63906 | 16958 ft | 376 kts | 264° |